createdAt,value
2022-09-28T00:00:20.697Z,9.50
2022-09-28T00:02:48.168Z,9.50
2022-09-28T00:05:15.229Z,9.40
2022-09-28T00:07:43.470Z,9.40
2022-09-28T00:10:10.765Z,9.50
2022-09-28T00:12:37.532Z,9.50
2022-09-28T00:15:04.955Z,9.40
2022-09-28T00:17:31.682Z,9.40
2022-09-28T00:19:58.418Z,9.40
2022-09-28T00:22:25.297Z,9.40
2022-09-28T00:24:53.388Z,9.40
2022-09-28T00:27:20.098Z,9.30
2022-09-28T00:29:46.826Z,9.40
2022-09-28T00:32:13.940Z,9.30
2022-09-28T00:34:43.116Z,9.30
2022-09-28T00:37:10.342Z,9.20
2022-09-28T00:39:38.331Z,9.10
2022-09-28T00:42:12.727Z,9.10
2022-09-28T00:44:47.119Z,9.20
2022-09-28T00:47:24.245Z,9.10
2022-09-28T00:49:54.957Z,9.20
2022-09-28T00:52:27.807Z,9.20
2022-09-28T00:54:57.325Z,9.20
2022-09-28T00:57:25.975Z,9.30
2022-09-28T00:59:52.717Z,9.20
2022-09-28T01:02:21.031Z,9.20
2022-09-28T01:04:49.642Z,9.10
2022-09-28T01:07:18.298Z,9.20
2022-09-28T01:09:45.831Z,9.10
2022-09-28T01:12:12.544Z,9.20
2022-09-28T01:14:42.597Z,9.20
2022-09-28T01:17:13.807Z,9.20
2022-09-28T01:20:12.361Z,9.20
2022-09-28T01:23:01.500Z,9.30
2022-09-28T01:25:39.606Z,9.30
2022-09-28T01:28:12.066Z,9.30
2022-09-28T01:30:44.941Z,9.30
2022-09-28T01:33:17.669Z,9.30
2022-09-28T01:35:50.720Z,9.30
2022-09-28T01:38:21.816Z,9.30
2022-09-28T01:40:50.433Z,9.30
2022-09-28T01:43:23.002Z,9.30
2022-09-28T01:45:54.024Z,9.30
2022-09-28T01:48:26.393Z,9.30
2022-09-28T01:50:57.784Z,9.30
2022-09-28T01:53:33.357Z,9.30
2022-09-28T01:56:05.354Z,9.30
2022-09-28T01:58:38.265Z,9.30
2022-09-28T02:01:09.937Z,9.30
2022-09-28T02:03:40.795Z,9.20
2022-09-28T02:06:13.596Z,9.20
2022-09-28T02:08:46.806Z,9.10
2022-09-28T02:11:14.898Z,9.20
2022-09-28T02:13:46.060Z,9.20
2022-09-28T02:16:18.563Z,9.30
2022-09-28T02:18:47.050Z,9.30
2022-09-28T02:21:17.614Z,9.30
2022-09-28T02:23:52.902Z,9.40
2022-09-28T02:26:23.281Z,9.40
2022-09-28T02:28:51.339Z,9.40
2022-09-28T02:31:18.113Z,9.40
2022-09-28T02:33:46.138Z,9.30
2022-09-28T02:36:13.242Z,9.30
2022-09-28T02:38:40.047Z,9.20
2022-09-28T02:41:13.673Z,9.30
2022-09-28T02:43:56.989Z,9.20
2022-09-28T02:46:29.766Z,9.00
2022-09-28T02:49:21.461Z,8.90
2022-09-28T02:52:09.269Z,9.00
2022-09-28T02:55:04.027Z,9.00
2022-09-28T02:57:42.106Z,8.80
2022-09-28T03:00:14.197Z,8.90
2022-09-28T03:02:49.632Z,9.00
2022-09-28T03:05:20.588Z,9.00
2022-09-28T03:07:54.389Z,9.00
2022-09-28T03:10:28.178Z,9.00
2022-09-28T03:12:55.934Z,9.10
2022-09-28T03:15:26.181Z,9.20
2022-09-28T03:17:53.125Z,9.10
2022-09-28T03:20:20.018Z,9.10
2022-09-28T03:23:06.070Z,9.10
2022-09-28T03:25:33.493Z,9.10
2022-09-28T03:28:00.515Z,9.20
2022-09-28T03:30:28.588Z,9.20
2022-09-28T03:32:58.801Z,9.20
2022-09-28T03:35:25.741Z,9.20
2022-09-28T03:37:54.796Z,9.20
2022-09-28T03:42:49.549Z,9.20
2022-09-28T03:45:16.279Z,9.30
2022-09-28T03:47:46.926Z,9.20
2022-09-28T03:50:14.271Z,9.20
2022-09-28T03:52:41.224Z,9.30
2022-09-28T03:55:08.781Z,9.30
2022-09-28T03:57:35.476Z,9.30
2022-09-28T04:00:03.526Z,9.30
2022-09-28T04:02:30.461Z,9.30
2022-09-28T04:04:58.513Z,9.30
2022-09-28T04:07:28.974Z,9.30
2022-09-28T04:09:57.580Z,9.30
2022-09-28T04:14:51.364Z,9.30
2022-09-28T04:17:18.138Z,9.30
2022-09-28T04:19:44.934Z,9.40
2022-09-28T04:22:14.223Z,9.30
2022-09-28T04:27:30.219Z,9.30
2022-09-28T04:29:56.906Z,9.30
2022-09-28T04:32:23.665Z,9.30
2022-09-28T04:34:51.270Z,9.00
2022-09-28T04:37:19.355Z,9.00
2022-09-28T04:39:48.464Z,9.10
2022-09-28T04:42:15.913Z,9.10
2022-09-28T04:44:42.739Z,9.20
2022-09-28T04:47:09.446Z,9.20
2022-09-28T04:52:04.994Z,9.20
2022-09-28T04:54:33.303Z,9.30
2022-09-28T04:57:00.022Z,9.30
2022-09-28T04:59:26.737Z,9.30
2022-09-28T05:01:54.026Z,9.30
2022-09-28T05:04:25.609Z,9.30
2022-09-28T05:06:52.757Z,9.20
2022-09-28T05:09:19.559Z,9.30
2022-09-28T05:11:49.071Z,9.30
2022-09-28T05:14:16.326Z,9.20
2022-09-28T05:16:44.289Z,9.30
2022-09-28T05:19:12.291Z,9.30
2022-09-28T05:24:07.567Z,9.20
2022-09-28T05:26:34.589Z,9.10
2022-09-28T05:29:02.755Z,9.10
2022-09-28T05:31:29.570Z,9.20
2022-09-28T05:33:56.350Z,9.30
2022-09-28T05:36:23.850Z,9.30
2022-09-28T05:38:51.121Z,9.20
2022-09-28T05:41:17.838Z,9.10
2022-09-28T05:43:45.646Z,9.10
2022-09-28T05:46:14.462Z,9.20
2022-09-28T05:48:41.217Z,9.10
2022-09-28T05:51:10.019Z,9.00
2022-09-28T05:53:36.782Z,9.10
2022-09-28T05:56:03.845Z,8.90
2022-09-28T05:58:30.588Z,8.90
2022-09-28T06:00:58.162Z,9.10
2022-09-28T06:03:26.958Z,9.10
2022-09-28T06:05:54.045Z,9.00
2022-09-28T06:08:21.004Z,9.00
2022-09-28T06:10:47.740Z,9.10
2022-09-28T06:15:43.331Z,9.10
2022-09-28T06:18:14.090Z,9.10
2022-09-28T06:20:42.603Z,9.10
2022-09-28T06:23:10.095Z,9.10
2022-09-28T06:28:06.164Z,9.30
2022-09-28T06:30:35.046Z,9.30
2022-09-28T06:33:02.370Z,9.30
2022-09-28T06:35:30.673Z,9.40
2022-09-28T06:37:59.813Z,9.30
2022-09-28T06:40:27.457Z,9.30
2022-09-28T06:42:58.948Z,9.30
2022-09-28T06:45:27.190Z,9.40
2022-09-28T06:47:56.502Z,9.30
2022-09-28T06:50:23.448Z,9.50
2022-09-28T06:52:51.716Z,9.50
2022-09-28T06:55:20.300Z,9.40
2022-09-28T06:57:47.459Z,9.30
2022-09-28T07:00:15.348Z,9.30
2022-09-28T07:02:42.113Z,9.30
2022-09-28T07:05:13.436Z,9.40
2022-09-28T07:07:42.800Z,9.20
2022-09-28T07:10:10.631Z,9.10
2022-09-28T07:12:39.747Z,9.10
2022-09-28T07:15:08.243Z,9.10
2022-09-28T07:17:46.414Z,9.30
2022-09-28T07:20:21.474Z,9.30
2022-09-28T07:22:52.976Z,9.40
2022-09-28T07:25:20.275Z,9.50
2022-09-28T07:27:48.364Z,9.60
2022-09-28T07:40:25.929Z,9.60
2022-09-28T07:42:54.070Z,9.50
2022-09-28T07:45:23.744Z,9.30
2022-09-28T07:47:50.607Z,9.40
2022-09-28T07:50:17.984Z,9.30
2022-09-28T07:52:45.760Z,9.20
2022-09-28T08:00:09.434Z,9.40
2022-09-28T08:02:37.573Z,9.40
2022-09-28T08:05:05.315Z,9.40
2022-09-28T08:07:32.610Z,9.40
2022-09-28T08:09:59.404Z,9.40
2022-09-28T08:12:26.169Z,9.30
2022-09-28T08:17:21.353Z,9.40
2022-09-28T08:20:06.780Z,9.60
2022-09-28T08:22:33.577Z,9.40
2022-09-28T08:25:00.280Z,9.20
2022-09-28T08:29:54.126Z,9.10
2022-09-28T08:32:22.205Z,9.20
2022-09-28T08:34:48.905Z,9.20
2022-09-28T08:37:15.660Z,9.20
2022-09-28T08:39:42.552Z,9.20
2022-09-28T08:42:25.951Z,9.50
2022-09-28T08:44:57.701Z,9.50
2022-09-28T08:47:49.646Z,9.40
2022-09-28T08:50:18.780Z,9.40
2022-09-28T08:52:51.129Z,9.40
2022-09-28T08:55:24.306Z,9.50
2022-09-28T08:57:54.737Z,9.60
2022-09-28T09:00:27.838Z,9.40
2022-09-28T09:02:56.441Z,9.40
2022-09-28T09:05:39.913Z,9.70
2022-09-28T09:08:21.260Z,9.70
2022-09-28T09:10:52.113Z,9.80
2022-09-28T09:13:42.427Z,9.60
2022-09-28T09:16:15.080Z,9.80
2022-09-28T09:18:51.053Z,10.00
2022-09-28T09:21:39.884Z,10.00
2022-09-28T09:24:21.482Z,10.10
2022-09-28T09:26:54.545Z,10.30
2022-09-28T09:29:33.212Z,10.60
2022-09-28T09:32:14.886Z,10.70
2022-09-28T09:35:24.064Z,10.80
2022-09-28T09:38:16.048Z,10.70
2022-09-28T09:43:35.764Z,10.50
2022-09-28T09:46:14.410Z,10.70
2022-09-28T09:48:50.542Z,10.80
2022-09-28T09:51:24.849Z,10.70
2022-09-28T09:53:56.182Z,10.80
2022-09-28T09:56:30.900Z,10.90
2022-09-28T09:59:02.913Z,10.90
2022-09-28T10:01:34.922Z,11.00
2022-09-28T10:04:04.965Z,11.20
2022-09-28T10:06:34.479Z,11.20
2022-09-28T10:09:04.921Z,11.10
2022-09-28T10:11:36.460Z,11.20
2022-09-28T10:14:03.517Z,11.20
2022-09-28T10:16:32.970Z,10.80
2022-09-28T10:19:00.769Z,11.00
2022-09-28T10:21:28.774Z,11.20
2022-09-28T10:23:58.479Z,11.10
2022-09-28T10:26:31.633Z,11.30
2022-09-28T10:29:01.533Z,11.20
2022-09-28T10:31:39.638Z,11.20
2022-09-28T10:34:08.142Z,11.50
2022-09-28T10:36:47.451Z,11.40
2022-09-28T10:39:44.864Z,11.00
2022-09-28T10:42:17.988Z,10.90
2022-09-28T10:44:52.814Z,11.10
2022-09-28T10:47:22.900Z,11.00
2022-09-28T10:49:50.579Z,11.10
2022-09-28T10:52:36.158Z,11.10
2022-09-28T10:55:25.629Z,11.30
2022-09-28T10:57:53.029Z,11.60
2022-09-28T11:00:40.052Z,11.60
2022-09-28T11:03:17.577Z,11.70
2022-09-28T11:05:54.497Z,11.80
2022-09-28T11:08:26.386Z,11.70
2022-09-28T11:11:04.021Z,11.60
2022-09-28T11:13:31.531Z,11.60
2022-09-28T11:15:58.277Z,11.60
2022-09-28T11:18:31.309Z,11.80
2022-09-28T11:21:12.561Z,11.90
2022-09-28T11:23:41.954Z,11.90
2022-09-28T11:26:18.207Z,11.90
2022-09-28T11:28:51.267Z,11.90
2022-09-28T11:31:26.061Z,12.10
2022-09-28T11:34:04.066Z,12.20
2022-09-28T11:36:43.945Z,12.20
2022-09-28T11:39:17.760Z,12.20
2022-09-28T11:41:58.393Z,12.40
2022-09-28T11:44:37.306Z,12.50
2022-09-28T11:47:17.980Z,12.70
2022-09-28T11:49:48.624Z,12.70
2022-09-28T11:52:22.805Z,12.60
2022-09-28T11:54:54.741Z,12.80
2022-09-28T11:57:27.642Z,13.00
2022-09-28T11:59:58.234Z,12.80
2022-09-28T12:02:29.705Z,12.60
2022-09-28T12:05:02.820Z,12.50
2022-09-28T12:07:34.340Z,12.50
2022-09-28T12:10:09.356Z,12.80
2022-09-28T12:12:40.027Z,12.80
2022-09-28T12:15:17.633Z,12.70
2022-09-28T12:17:49.524Z,13.00
2022-09-28T12:20:22.632Z,13.30
2022-09-28T12:23:00.212Z,13.20
2022-09-28T12:25:33.091Z,13.20
2022-09-28T12:28:05.485Z,12.90
2022-09-28T12:30:37.282Z,12.90
2022-09-28T12:33:09.089Z,12.60
2022-09-28T12:35:46.557Z,12.90
2022-09-28T12:38:33.894Z,13.00
2022-09-28T12:41:08.613Z,13.20
2022-09-28T12:44:09.795Z,13.30
2022-09-28T12:46:51.889Z,13.20
2022-09-28T12:50:33.310Z,13.00
2022-09-28T12:52:29.364Z,12.80
2022-09-28T12:57:46.989Z,12.60
2022-09-28T13:00:17.618Z,12.50
2022-09-28T13:03:19.592Z,11.90
2022-09-28T13:06:13.069Z,11.50
2022-09-28T13:08:49.410Z,11.40
2022-09-28T13:11:26.082Z,11.00
2022-09-28T13:14:01.856Z,10.80
2022-09-28T13:16:36.593Z,10.70
2022-09-28T13:19:11.046Z,10.60
2022-09-28T13:21:43.780Z,10.50
2022-09-28T13:24:31.623Z,10.50
2022-09-28T13:27:04.557Z,10.60
2022-09-28T13:29:34.513Z,10.70
2022-09-28T13:32:03.170Z,10.70
2022-09-28T13:34:33.204Z,10.70
2022-09-28T13:37:17.999Z,10.70
2022-09-28T13:39:52.035Z,10.70
2022-09-28T13:42:27.107Z,10.70
2022-09-28T13:45:27.466Z,10.70
2022-09-28T13:48:14.523Z,10.60
2022-09-28T13:51:15.120Z,10.70
2022-09-28T13:54:08.853Z,10.40
2022-09-28T13:56:44.106Z,10.60
2022-09-28T13:59:17.266Z,10.80
2022-09-28T14:01:56.009Z,11.00
2022-09-28T14:04:47.564Z,11.10
2022-09-28T14:07:20.378Z,11.20
2022-09-28T14:09:48.599Z,11.20
2022-09-28T14:12:43.188Z,11.30
2022-09-28T14:15:41.749Z,11.30
2022-09-28T14:18:29.405Z,11.30
2022-09-28T14:21:40.063Z,11.20
2022-09-28T14:24:30.128Z,11.30
2022-09-28T14:27:08.863Z,11.30
2022-09-28T14:29:37.726Z,11.40
2022-09-28T14:32:20.449Z,11.50
2022-09-28T14:34:55.375Z,11.60
2022-09-28T14:37:46.128Z,11.50
2022-09-28T14:40:39.398Z,11.50
2022-09-28T14:43:35.272Z,11.50
2022-09-28T14:46:35.559Z,11.80
2022-09-28T14:49:04.090Z,11.80
2022-09-28T14:52:02.521Z,11.80
2022-09-28T14:54:40.424Z,11.90
2022-09-28T14:57:16.012Z,11.80
2022-09-28T14:59:46.104Z,11.70
2022-09-28T15:02:19.460Z,11.50
2022-09-28T15:04:50.193Z,11.50
2022-09-28T15:07:20.006Z,11.60
2022-09-28T15:09:50.341Z,11.60
2022-09-28T15:12:19.291Z,11.80
2022-09-28T15:14:51.403Z,11.80
2022-09-28T15:17:21.954Z,11.80
2022-09-28T15:19:55.753Z,11.80
2022-09-28T15:22:22.598Z,11.90
2022-09-28T15:25:01.395Z,12.00
2022-09-28T15:27:35.952Z,11.90
2022-09-28T15:30:22.117Z,12.00
2022-09-28T15:32:49.175Z,12.10
2022-09-28T15:35:20.561Z,12.20
2022-09-28T15:37:51.878Z,12.20
2022-09-28T15:40:28.735Z,12.20
2022-09-28T15:48:27.599Z,12.30
2022-09-28T15:51:05.060Z,12.30
2022-09-28T15:53:32.972Z,12.30
2022-09-28T15:56:09.456Z,12.20
2022-09-28T15:58:37.503Z,12.20
2022-09-28T16:01:27.117Z,12.30
2022-09-28T16:03:54.085Z,12.30
2022-09-28T16:06:21.235Z,12.30
2022-09-28T16:08:50.798Z,12.30
2022-09-28T16:11:21.644Z,12.20
2022-09-28T16:13:56.973Z,12.20
2022-09-28T16:16:28.432Z,12.30
2022-09-28T16:18:56.989Z,12.30
2022-09-28T16:21:38.571Z,12.20
2022-09-28T16:26:37.436Z,12.10
2022-09-28T16:29:09.696Z,12.00
2022-09-28T16:31:36.725Z,12.00
2022-09-28T16:34:19.758Z,11.90
2022-09-28T16:36:48.319Z,12.00
2022-09-28T16:39:16.732Z,12.00
2022-09-28T16:41:48.422Z,11.90
2022-09-28T16:44:20.680Z,11.90
2022-09-28T16:46:47.692Z,11.90
2022-09-28T16:49:18.751Z,11.70
2022-09-28T16:51:46.787Z,11.70
2022-09-28T16:54:34.576Z,11.80
2022-09-28T16:57:04.684Z,11.70
2022-09-28T16:59:32.015Z,11.50
2022-09-28T17:01:58.956Z,11.40
2022-09-28T17:04:26.709Z,11.10
2022-09-28T17:06:55.548Z,11.10
2022-09-28T17:14:24.815Z,11.00
2022-09-28T17:17:13.727Z,12.40
2022-09-28T17:19:40.998Z,10.70
2022-09-28T17:22:08.289Z,10.40
2022-09-28T17:24:35.094Z,10.40
2022-09-28T17:29:32.540Z,10.40
2022-09-28T17:31:59.295Z,10.30
2022-09-28T17:34:26.022Z,10.10
2022-09-28T17:36:52.822Z,10.10
2022-09-28T17:41:47.033Z,10.00
2022-09-28T17:44:15.842Z,10.00
2022-09-28T17:46:47.294Z,10.00
2022-09-28T17:49:14.374Z,9.90
2022-09-28T17:51:41.295Z,9.80
2022-09-28T17:54:08.737Z,9.70
2022-09-28T17:56:35.946Z,9.60
2022-09-28T17:59:05.444Z,9.70
2022-09-28T18:01:35.637Z,9.60
2022-09-28T18:04:05.633Z,9.50
2022-09-28T18:06:33.726Z,9.40
2022-09-28T18:09:02.644Z,9.40
2022-09-28T18:11:29.697Z,9.40
2022-09-28T18:13:56.497Z,9.20
2022-09-28T18:16:23.679Z,9.10
2022-09-28T18:18:50.514Z,9.00
2022-09-28T18:21:18.769Z,9.00
2022-09-28T18:23:45.604Z,10.20
2022-09-28T18:26:13.661Z,9.10
2022-09-28T18:28:41.080Z,9.10
2022-09-28T18:31:08.461Z,9.20
2022-09-28T18:33:35.447Z,9.10
2022-09-28T18:36:02.643Z,9.20
2022-09-28T18:38:30.913Z,9.20
2022-09-28T18:40:57.746Z,9.20
2022-09-28T18:43:24.531Z,9.20
2022-09-28T18:45:51.274Z,9.10
2022-09-28T18:53:12.527Z,9.30
2022-09-28T18:55:42.121Z,9.30
2022-09-28T18:58:10.292Z,9.30
2022-09-28T19:00:38.219Z,9.30
2022-09-28T19:03:07.167Z,9.30
2022-09-28T19:12:57.939Z,9.20
2022-09-28T19:15:25.577Z,9.20
2022-09-28T19:17:52.376Z,9.40
2022-09-28T19:20:19.241Z,9.30
2022-09-28T19:22:49.160Z,9.20
2022-09-28T19:27:43.213Z,9.20
2022-09-28T19:30:12.657Z,9.20
2022-09-28T19:32:39.451Z,9.20
2022-09-28T19:35:06.365Z,9.20
2022-09-28T19:37:36.464Z,9.10
2022-09-28T19:40:05.693Z,9.10
2022-09-28T19:42:32.724Z,9.00
2022-09-28T19:44:59.489Z,9.00
2022-09-28T19:47:27.684Z,8.90
2022-09-28T19:52:21.661Z,8.90
2022-09-28T19:54:56.782Z,8.90
2022-09-28T19:57:24.707Z,8.80
2022-09-28T19:59:53.299Z,8.80
2022-09-28T20:02:21.573Z,8.80
2022-09-28T20:04:49.935Z,11.10
2022-09-28T20:07:17.027Z,8.90
2022-09-28T20:09:43.892Z,8.90
2022-09-28T20:12:11.159Z,8.80
2022-09-28T20:14:40.458Z,8.80
2022-09-28T20:17:08.037Z,8.80
2022-09-28T20:22:03.963Z,8.60
2022-09-28T20:24:31.097Z,8.70
2022-09-28T20:26:58.486Z,8.60
2022-09-28T20:29:25.490Z,8.60
2022-09-28T20:31:52.399Z,8.70
2022-09-28T20:39:14.960Z,8.60
2022-09-28T20:41:41.876Z,8.60
2022-09-28T20:44:09.004Z,8.50
2022-09-28T20:49:03.769Z,8.40
2022-09-28T20:51:30.730Z,8.60
2022-09-28T20:53:58.733Z,8.50
2022-09-28T20:56:28.277Z,8.40
2022-09-28T20:58:55.481Z,8.40
2022-09-28T21:01:23.569Z,8.40
2022-09-28T21:03:52.610Z,8.40
2022-09-28T21:06:20.658Z,8.40
2022-09-28T21:08:47.683Z,8.40
2022-09-28T21:11:15.406Z,8.40
2022-09-28T21:13:43.812Z,8.40
2022-09-28T21:16:11.929Z,8.30
2022-09-28T21:18:39.240Z,8.30
2022-09-28T21:21:07.239Z,8.20
2022-09-28T21:23:34.793Z,8.20
2022-09-28T21:26:03.767Z,8.20
2022-09-28T21:28:30.610Z,8.20
2022-09-28T21:30:59.158Z,8.20
2022-09-28T21:33:26.025Z,8.10
2022-09-28T21:35:52.833Z,8.10
2022-09-28T21:38:19.677Z,8.10
2022-09-28T21:40:46.539Z,8.00
2022-09-28T21:43:13.421Z,8.00
2022-09-28T21:48:16.253Z,8.00
2022-09-28T21:50:43.034Z,7.90
2022-09-28T21:53:09.865Z,7.80
2022-09-28T21:55:37.010Z,7.70
2022-09-28T21:58:03.815Z,7.70
2022-09-28T22:00:30.652Z,7.60
2022-09-28T22:02:57.514Z,7.70
2022-09-28T22:05:25.709Z,7.80
2022-09-28T22:07:52.528Z,7.70
2022-09-28T22:10:19.423Z,7.70
2022-09-28T22:12:46.226Z,7.70
2022-09-28T22:15:13.007Z,7.70
2022-09-28T22:17:39.807Z,7.70
2022-09-28T22:20:07.218Z,7.70
2022-09-28T22:22:35.386Z,7.60
2022-09-28T22:25:02.222Z,7.60
2022-09-28T22:27:31.640Z,7.50
2022-09-28T22:29:58.682Z,7.50
2022-09-28T22:32:26.057Z,7.60
2022-09-28T22:34:53.097Z,7.50
2022-09-28T22:37:19.984Z,7.50
2022-09-28T22:39:48.109Z,7.40
2022-09-28T22:42:16.266Z,7.40
2022-09-28T22:44:43.321Z,7.30
2022-09-28T22:47:10.287Z,7.30
2022-09-28T22:49:37.122Z,7.30
2022-09-28T22:52:03.951Z,7.30
2022-09-28T22:54:30.863Z,7.30
2022-09-28T22:56:59.097Z,7.20
2022-09-28T22:59:25.883Z,8.50
2022-09-28T23:01:52.836Z,7.20
2022-09-28T23:04:19.721Z,7.10
2022-09-28T23:06:46.543Z,7.20
2022-09-28T23:09:13.362Z,7.10
2022-09-28T23:11:40.147Z,7.10
2022-09-28T23:14:11.454Z,7.10
2022-09-28T23:16:38.274Z,7.10
2022-09-28T23:19:05.278Z,7.10
2022-09-28T23:21:32.054Z,7.30
2022-09-28T23:24:02.832Z,7.10
2022-09-28T23:26:31.464Z,7.10
2022-09-28T23:28:59.381Z,7.10
2022-09-28T23:31:29.561Z,7.10
2022-09-28T23:33:59.989Z,7.00
2022-09-28T23:36:27.467Z,7.00
2022-09-28T23:38:54.484Z,7.00
2022-09-28T23:41:21.300Z,7.00
2022-09-28T23:43:48.105Z,7.00
2022-09-28T23:46:20.291Z,7.00
2022-09-28T23:48:49.328Z,7.10
2022-09-28T23:51:16.444Z,8.20
2022-09-28T23:53:43.544Z,7.10
2022-09-28T23:56:10.424Z,7.10
2022-09-28T23:58:37.336Z,7.10
